Time;durP1;ratioP1;P1;durP2;ratioP2;P2;SDS_P1;SDS_P2;PMS_P1;PMS_P2;Temp;Humidity;BMP_temperature;BMP_pressure;BME280_temperature;BME280_humidity;BME280_pressure;Samples;Min_cycle;Max_cycle;Signal;HPM_P1;HPM_P2
2021/12/31 00:01:08;;;;;;;10.05;1.75;;;11.70;99.90;;;;;;5016888;28;20393;-87
2021/12/31 00:03:33;;;;;;;5.25;1.75;;;11.80;99.90;;;;;;4999776;28;20436;-86
2021/12/31 00:05:59;;;;;;;6.63;1.60;;;11.80;99.90;;;;;;5032585;28;20049;-85
2021/12/31 00:08:25;;;;;;;10.65;2.03;;;11.70;99.90;;;;;;5016075;28;20048;-87
2021/12/31 00:10:56;;;;;;;9.88;2.03;;;11.70;99.90;;;;;;5015884;28;20049;-81
2021/12/31 00:13:22;;;;;;;16.05;2.30;;;11.70;99.90;;;;;;5016988;28;20558;-86
2021/12/31 00:15:48;;;;;;;6.70;1.50;;;11.70;99.90;;;;;;5015797;28;20034;-82
2021/12/31 00:18:14;;;;;;;14.77;1.83;;;11.70;99.90;;;;;;5015756;28;20041;-87
2021/12/31 00:20:40;;;;;;;9.85;1.95;;;11.70;99.90;;;;;;5048896;28;20570;-86
2021/12/31 00:23:12;;;;;;;17.15;2.72;;;11.60;99.90;;;;;;5015593;28;20132;-86
2021/12/31 00:25:40;;;;;;;4.80;1.40;;;11.50;99.90;;;;;;5031936;28;20053;-86
2021/12/31 00:28:07;;;;;;;7.55;1.38;;;11.40;99.90;;;;;;5016102;28;20107;-82
2021/12/31 00:30:34;;;;;;;14.82;2.35;;;11.40;99.90;;;;;;5015593;28;20052;-81
2021/12/31 00:33:01;;;;;;;8.65;1.85;;;11.40;99.90;;;;;;5031827;28;20034;-81
2021/12/31 00:35:28;;;;;;;5.55;1.85;;;11.60;99.90;;;;;;5015401;28;20045;-83
2021/12/31 00:37:54;;;;;;;7.28;2.22;;;11.60;99.90;;;;;;5031709;28;20045;-81
2021/12/31 00:40:20;;;;;;;15.27;3.08;;;11.60;99.90;;;;;;5031801;28;20041;-86
2021/12/31 00:42:46;;;;;;;15.52;3.28;;;11.80;99.90;;;;;;5015183;28;20057;-81
2021/12/31 00:45:16;;;;;;;11.38;1.63;;;11.70;99.90;;;;;;5015272;28;20064;-86
2021/12/31 00:47:42;;;;;;;10.27;1.90;;;11.70;99.90;;;;;;5031731;28;20373;-82
2021/12/31 00:50:09;;;;;;;6.38;1.80;;;11.80;99.90;;;;;;5031822;28;20060;-85
2021/12/31 00:52:35;;;;;;;8.27;2.08;;;11.70;99.90;;;;;;5015453;28;20037;-82
2021/12/31 00:55:01;;;;;;;8.23;1.52;;;11.80;99.90;;;;;;5015431;28;20053;-82
2021/12/31 00:57:27;;;;;;;15.18;3.22;;;11.80;99.90;;;;;;5031285;28;20503;-86
2021/12/31 00:59:53;;;;;;;6.18;2.17;;;11.70;99.90;;;;;;5031278;28;20050;-81
2021/12/31 01:02:21;;;;;;;11.65;2.40;;;11.70;99.90;;;;;;5015381;28;20107;-85
2021/12/31 01:04:47;;;;;;;9.00;2.08;;;11.80;99.90;;;;;;5031569;28;20041;-82
2021/12/31 01:07:12;;;;;;;7.97;2.90;;;11.80;99.90;;;;;;5015373;28;20048;-83
2021/12/31 01:09:38;;;;;;;8.23;1.75;;;11.80;99.90;;;;;;5015912;28;20082;-86
2021/12/31 01:12:07;;;;;;;9.48;2.25;;;11.80;99.90;;;;;;5015263;28;20103;-81
2021/12/31 01:14:37;;;;;;;11.35;2.67;;;11.80;99.90;;;;;;5015132;28;20132;-85
2021/12/31 01:17:07;;;;;;;11.82;1.48;;;12.00;99.90;;;;;;5031405;28;20133;-81
2021/12/31 01:19:46;;;;;;;10.48;1.30;;;11.80;99.90;;;;;;5031814;28;20045;-82
2021/12/31 01:22:27;;;;;;;8.13;2.13;;;11.80;99.90;;;;;;5017199;28;20507;-83
2021/12/31 01:24:53;;;;;;;7.28;2.30;;;11.90;99.90;;;;;;5031710;28;20099;-82
2021/12/31 01:27:19;;;;;;;5.45;2.58;;;11.80;99.90;;;;;;5015159;28;20497;-86
2021/12/31 01:29:44;;;;;;;13.45;3.15;;;11.90;99.90;;;;;;5015253;28;20045;-82
2021/12/31 01:32:11;;;;;;;9.20;2.05;;;11.90;99.90;;;;;;5014800;28;20136;-87
2021/12/31 01:34:38;;;;;;;7.35;1.85;;;11.80;99.90;;;;;;5015369;28;20038;-83
2021/12/31 01:37:05;;;;;;;7.93;2.15;;;11.80;99.90;;;;;;5015310;28;20041;-82
2021/12/31 01:39:31;;;;;;;3.35;1.27;;;12.00;99.90;;;;;;5015001;28;20041;-87
2021/12/31 01:41:58;;;;;;;6.30;1.58;;;11.90;99.90;;;;;;5031115;28;20050;-86
2021/12/31 01:44:33;;;;;;;9.25;3.10;;;11.90;99.90;;;;;;5031087;28;20081;-82
2021/12/31 01:47:04;;;;;;;8.45;1.77;;;12.00;99.90;;;;;;5031597;28;20587;-82
2021/12/31 01:49:35;;;;;;;6.90;1.50;;;11.90;99.90;;;;;;5031160;28;20107;-82
2021/12/31 01:52:02;;;;;;;9.02;2.05;;;11.80;99.90;;;;;;5031036;28;20053;-87
2021/12/31 01:54:29;;;;;;;4.95;1.27;;;11.90;99.90;;;;;;5031120;28;20068;-83
2021/12/31 01:56:56;;;;;;;7.60;2.05;;;12.00;99.90;;;;;;5014600;28;20045;-82
2021/12/31 01:59:22;;;;;;;9.30;1.98;;;12.00;99.90;;;;;;5014547;28;20049;-81
2021/12/31 02:01:48;;;;;;;11.35;1.92;;;12.00;99.90;;;;;;5031219;28;20517;-83
2021/12/31 02:04:14;;;;;;;7.30;1.88;;;12.00;99.90;;;;;;5014610;28;20408;-87
2021/12/31 02:06:40;;;;;;;11.93;2.75;;;12.10;99.90;;;;;;5014525;28;20041;-82
2021/12/31 02:09:06;;;;;;;9.75;2.30;;;12.10;99.90;;;;;;5018346;28;20045;-87
2021/12/31 02:11:32;;;;;;;9.70;1.63;;;12.10;99.90;;;;;;5018009;28;20050;-82
2021/12/31 02:14:01;;;;;;;9.13;1.98;;;12.20;99.90;;;;;;5018420;28;20115;-86
2021/12/31 02:16:27;;;;;;;8.70;2.20;;;12.20;99.90;;;;;;5034350;28;20053;-83
2021/12/31 02:18:52;;;;;;;11.90;2.00;;;12.30;99.90;;;;;;5018003;28;20303;-82
2021/12/31 02:21:20;;;;;;;5.43;1.20;;;12.30;99.90;;;;;;5017807;28;20160;-82
2021/12/31 02:23:51;;;;;;;6.30;1.50;;;12.20;99.90;;;;;;5018031;28;20049;-82
2021/12/31 02:26:16;;;;;;;17.83;2.78;;;12.30;99.90;;;;;;5034327;28;20038;-82
2021/12/31 02:28:42;;;;;;;10.48;1.55;;;12.20;99.90;;;;;;5017927;28;20045;-83
2021/12/31 02:31:08;;;;;;;8.27;2.33;;;12.30;99.90;;;;;;5017785;28;20049;-82
2021/12/31 02:33:34;;;;;;;8.70;1.90;;;12.40;99.90;;;;;;5034039;28;20053;-87
2021/12/31 02:36:03;;;;;;;7.38;1.65;;;12.40;99.90;;;;;;5034068;28;20038;-86
2021/12/31 02:38:28;;;;;;;6.10;1.10;;;12.40;99.90;;;;;;5034184;28;20084;-86
2021/12/31 02:40:54;;;;;;;5.18;1.20;;;12.40;99.90;;;;;;5033928;28;20080;-84
2021/12/31 02:43:20;;;;;;;7.22;2.40;;;12.50;99.90;;;;;;5017657;28;20056;-83
2021/12/31 02:45:47;;;;;;;7.82;1.75;;;12.60;99.90;;;;;;5001071;28;20037;-82
2021/12/31 02:48:13;;;;;;;4.40;0.98;;;12.60;99.90;;;;;;5033726;28;20050;-82
2021/12/31 02:50:42;;;;;;;6.95;2.05;;;12.50;99.90;;;;;;5033965;28;20048;-87
2021/12/31 02:53:12;;;;;;;6.45;1.15;;;12.60;99.90;;;;;;5034065;28;20543;-87
2021/12/31 02:55:40;;;;;;;10.32;1.98;;;12.70;99.90;;;;;;5034176;28;20157;-86
2021/12/31 02:58:06;;;;;;;4.68;1.05;;;12.60;99.90;;;;;;5033454;28;20061;-83
2021/12/31 03:00:35;;;;;;;4.85;1.67;;;12.50;99.90;;;;;;5033689;28;20037;-82
2021/12/31 03:03:01;;;;;;;8.27;1.23;;;12.50;99.90;;;;;;5017024;28;20053;-86
2021/12/31 03:05:29;;;;;;;5.95;1.60;;;12.60;99.90;;;;;;5033756;28;20412;-83
2021/12/31 03:07:57;;;;;;;9.10;1.25;;;12.60;99.90;;;;;;5017292;28;20076;-83
2021/12/31 03:10:26;;;;;;;4.80;1.55;;;12.60;99.90;;;;;;5017289;28;20040;-83
2021/12/31 03:12:51;;;;;;;7.03;1.65;;;12.80;99.90;;;;;;5017587;28;20539;-86
2021/12/31 03:15:18;;;;;;;8.27;2.08;;;12.60;99.90;;;;;;5017150;28;20049;-84
2021/12/31 03:17:44;;;;;;;9.20;1.48;;;12.50;99.90;;;;;;5033123;28;20087;-83
2021/12/31 03:20:25;;;;;;;3.28;1.15;;;12.50;99.90;;;;;;5032647;28;20555;-82
2021/12/31 03:22:51;;;;;;;6.97;1.48;;;12.50;99.90;;;;;;5018965;28;20460;-82
2021/12/31 03:25:17;;;;;;;11.00;2.20;;;12.50;99.90;;;;;;5016830;28;20042;-84
2021/12/31 03:27:43;;;;;;;7.35;1.42;;;12.60;99.90;;;;;;5016545;28;20549;-86
2021/12/31 03:30:10;;;;;;;8.55;1.67;;;12.50;99.90;;;;;;5016827;28;20049;-82
2021/12/31 03:32:37;;;;;;;6.88;1.77;;;12.40;99.90;;;;;;5033017;28;20041;-84
2021/12/31 03:35:03;;;;;;;12.82;2.60;;;12.50;99.90;;;;;;5016756;28;20129;-88
2021/12/31 03:37:28;;;;;;;8.65;1.77;;;12.40;99.90;;;;;;5033293;28;20431;-84
2021/12/31 03:39:54;;;;;;;10.38;1.85;;;12.40;99.90;;;;;;5016621;28;20049;-82
2021/12/31 03:42:20;;;;;;;7.28;2.22;;;12.60;99.90;;;;;;5016321;28;20046;-84
2021/12/31 03:44:47;;;;;;;8.48;1.90;;;12.50;99.90;;;;;;5032859;28;20488;-86
2021/12/31 03:47:12;;;;;;;6.65;1.38;;;12.50;99.90;;;;;;5016419;28;20107;-85
2021/12/31 03:49:38;;;;;;;7.95;2.30;;;12.50;99.90;;;;;;5016517;28;20049;-83
2021/12/31 03:52:04;;;;;;;9.93;1.50;;;12.50;99.90;;;;;;5016307;28;20137;-84
2021/12/31 03:54:29;;;;;;;9.38;1.77;;;12.40;99.90;;;;;;5016145;28;20435;-88
2021/12/31 03:56:55;;;;;;;10.05;2.70;;;12.40;99.90;;;;;;5016178;28;20057;-86
2021/12/31 03:59:21;;;;;;;3.92;0.98;;;12.40;99.90;;;;;;5016086;28;20303;-86
2021/12/31 04:01:47;;;;;;;8.13;2.08;;;12.30;99.90;;;;;;5032558;28;20057;-87
2021/12/31 04:04:13;;;;;;;6.00;1.98;;;12.50;99.90;;;;;;5015931;28;20053;-87
2021/12/31 04:06:39;;;;;;;5.95;1.50;;;12.50;99.90;;;;;;5015911;28;20125;-86
2021/12/31 04:09:05;;;;;;;6.63;1.35;;;12.60;99.90;;;;;;5016333;28;20046;-88
2021/12/31 04:11:31;;;;;;;3.30;0.90;;;12.60;99.90;;;;;;5015968;28;20045;-86
2021/12/31 04:13:57;;;;;;;9.25;1.20;;;12.70;99.90;;;;;;5016402;28;20203;-83
2021/12/31 04:16:23;;;;;;;7.13;1.50;;;12.60;99.90;;;;;;5032474;28;20045;-87
2021/12/31 04:18:48;;;;;;;3.22;0.93;;;12.60;99.90;;;;;;5015862;28;20330;-82
2021/12/31 04:21:19;;;;;;;7.72;2.17;;;12.60;99.90;;;;;;4999308;28;20064;-84
2021/12/31 04:23:51;;;;;;;4.43;1.60;;;12.60;99.90;;;;;;5015548;28;20048;-87
2021/12/31 04:26:18;;;;;;;3.63;1.10;;;12.60;99.90;;;;;;5032741;28;20053;-82
2021/12/31 04:28:44;;;;;;;5.40;1.42;;;12.60;99.90;;;;;;5032014;28;20049;-82
2021/12/31 04:31:10;;;;;;;5.45;1.30;;;12.60;99.90;;;;;;5031839;28;20048;-85
2021/12/31 04:33:36;;;;;;;6.13;1.83;;;12.70;99.90;;;;;;5031922;28;20408;-88
2021/12/31 04:36:02;;;;;;;9.55;1.00;;;12.70;99.90;;;;;;5015772;28;20053;-83
2021/12/31 04:38:27;;;;;;;7.70;2.05;;;12.80;99.90;;;;;;4999509;28;20407;-86
2021/12/31 04:40:53;;;;;;;10.55;1.48;;;12.80;99.90;;;;;;5015642;28;20203;-85
2021/12/31 04:43:19;;;;;;;8.38;1.25;;;12.80;99.90;;;;;;5031683;28;20137;-82
2021/12/31 04:45:44;;;;;;;5.07;1.30;;;12.80;99.90;;;;;;5015379;28;20076;-84
2021/12/31 04:48:10;;;;;;;6.32;1.10;;;12.90;99.90;;;;;;5031870;28;20049;-90
2021/12/31 04:50:36;;;;;;;4.95;1.27;;;12.80;99.90;;;;;;5015800;28;20080;-84
2021/12/31 04:53:04;;;;;;;5.82;1.45;;;12.90;99.90;;;;;;5015508;28;20049;-86
2021/12/31 04:55:30;;;;;;;3.08;1.25;;;12.90;99.90;;;;;;5015448;28;20079;-86
2021/12/31 04:57:56;;;;;;;5.93;1.55;;;12.90;99.90;;;;;;5031429;28;20041;-83
2021/12/31 05:00:22;;;;;;;4.28;1.20;;;12.80;99.90;;;;;;5014902;28;20062;-82
2021/12/31 05:02:47;;;;;;;3.85;1.27;;;12.80;99.90;;;;;;5015019;28;20053;-84
2021/12/31 05:05:13;;;;;;;5.80;2.20;;;12.80;99.90;;;;;;5015078;28;20385;-84
2021/12/31 05:07:39;;;;;;;8.32;1.20;;;12.80;99.90;;;;;;5032169;28;20048;-85
2021/12/31 05:10:06;;;;;;;7.68;1.58;;;12.70;99.90;;;;;;5015114;28;20412;-82
2021/12/31 05:12:34;;;;;;;7.00;2.25;;;12.80;99.90;;;;;;5015111;28;20113;-84
2021/12/31 05:15:03;;;;;;;5.05;1.08;;;12.80;99.90;;;;;;5031755;28;20480;-83
2021/12/31 05:17:28;;;;;;;6.53;1.40;;;12.80;99.90;;;;;;5015570;28;20052;-83
2021/12/31 05:19:54;;;;;;;7.93;0.90;;;12.70;99.90;;;;;;5014957;28;20038;-88
2021/12/31 05:22:20;;;;;;;7.07;1.10;;;12.70;99.90;;;;;;5015843;28;20116;-83
2021/12/31 05:24:45;;;;;;;3.05;0.85;;;12.70;99.90;;;;;;5015151;28;20443;-88
2021/12/31 05:27:11;;;;;;;3.83;0.80;;;12.70;99.90;;;;;;5014999;28;20077;-83
2021/12/31 05:29:37;;;;;;;1.30;0.43;;;12.70;99.90;;;;;;5015119;28;20053;-85
2021/12/31 05:32:03;;;;;;;2.90;0.98;;;12.70;99.90;;;;;;5031523;28;20052;-84
2021/12/31 05:34:29;;;;;;;3.00;0.90;;;12.70;99.90;;;;;;5014955;28;20041;-82
2021/12/31 05:36:55;;;;;;;1.60;0.73;;;12.70;99.90;;;;;;5015273;28;20492;-85
2021/12/31 05:39:21;;;;;;;2.90;0.70;;;12.70;99.90;;;;;;5015081;28;20502;-86
2021/12/31 05:41:47;;;;;;;2.65;0.98;;;12.70;99.90;;;;;;5014958;28;20085;-85
2021/12/31 05:44:13;;;;;;;3.50;0.82;;;12.70;99.90;;;;;;5002197;28;20081;-87
2021/12/31 05:46:43;;;;;;;2.78;0.90;;;12.70;99.90;;;;;;5018675;28;20045;-86
2021/12/31 05:49:09;;;;;;;2.25;0.80;;;12.60;99.90;;;;;;5003025;28;20037;-82
2021/12/31 05:51:36;;;;;;;8.50;1.60;;;12.60;99.90;;;;;;5035340;28;20099;-84
2021/12/31 05:54:02;;;;;;;2.80;0.65;;;12.60;99.90;;;;;;5002097;28;20049;-83
2021/12/31 05:56:27;;;;;;;3.15;0.80;;;12.50;99.90;;;;;;5035193;28;20055;-85
2021/12/31 05:58:53;;;;;;;1.95;0.82;;;12.60;99.90;;;;;;5018243;28;20096;-83
2021/12/31 06:01:19;;;;;;;3.30;0.80;;;12.60;99.90;;;;;;5035134;28;20431;-83
2021/12/31 06:03:44;;;;;;;2.85;1.30;;;12.60;99.90;;;;;;5034610;28;20411;-86
2021/12/31 06:06:10;;;;;;;2.38;0.65;;;12.50;99.90;;;;;;5018300;28;20049;-85
2021/12/31 06:08:36;;;;;;;3.85;1.15;;;12.60;99.90;;;;;;5018197;28;20048;-84
2021/12/31 06:11:02;;;;;;;3.47;1.02;;;12.60;99.90;;;;;;5018059;28;20041;-82
2021/12/31 06:13:28;;;;;;;3.45;1.10;;;12.50;99.90;;;;;;5034493;28;20045;-85
2021/12/31 06:15:57;;;;;;;0.98;0.45;;;12.50;99.90;;;;;;5034850;28;20478;-85
2021/12/31 06:18:27;;;;;;;6.93;1.60;;;12.60;99.90;;;;;;5017940;28;20037;-83
2021/12/31 06:20:52;;;;;;;1.73;0.90;;;12.60;99.90;;;;;;5034399;28;20179;-86
2021/12/31 06:23:18;;;;;;;2.67;0.95;;;12.60;99.90;;;;;;5018117;28;20128;-87
2021/12/31 06:25:44;;;;;;;3.70;1.10;;;12.60;99.90;;;;;;5018167;28;20041;-82
2021/12/31 06:28:10;;;;;;;2.92;0.98;;;12.60;99.90;;;;;;5018319;28;20042;-84
2021/12/31 06:30:36;;;;;;;1.27;0.65;;;12.60;99.90;;;;;;5017814;28;20045;-86
2021/12/31 06:33:02;;;;;;;4.72;0.90;;;12.60;99.90;;;;;;5017699;28;20102;-87
2021/12/31 06:35:28;;;;;;;1.33;0.70;;;12.60;99.90;;;;;;5034101;28;20050;-83
2021/12/31 06:37:56;;;;;;;1.95;0.85;;;12.60;99.90;;;;;;5034056;28;20053;-83
2021/12/31 06:40:23;;;;;;;4.47;0.95;;;12.60;99.90;;;;;;5018047;28;20049;-82
2021/12/31 06:42:48;;;;;;;1.65;0.55;;;12.70;99.90;;;;;;5017845;28;20045;-87
2021/12/31 06:45:14;;;;;;;1.73;0.90;;;12.60;99.90;;;;;;5017426;28;20037;-87
2021/12/31 06:47:40;;;;;;;5.18;1.40;;;12.60;99.90;;;;;;5050669;28;20575;-83
2021/12/31 06:50:06;;;;;;;5.65;1.10;;;12.60;99.90;;;;;;5033831;28;20083;-86
2021/12/31 06:52:39;;;;;;;3.25;0.70;;;12.60;99.90;;;;;;5017840;28;20095;-83
2021/12/31 06:55:08;;;;;;;5.50;1.20;;;12.60;99.90;;;;;;5015999;28;20116;-83
2021/12/31 06:57:35;;;;;;;3.67;0.98;;;12.60;99.90;;;;;;5017307;28;20099;-86
2021/12/31 07:00:03;;;;;;;2.67;0.93;;;12.60;99.90;;;;;;5016833;28;20115;-86
2021/12/31 07:02:29;;;;;;;1.73;0.68;;;12.50;99.90;;;;;;5033512;28;20049;-84
2021/12/31 07:04:54;;;;;;;3.45;0.82;;;12.50;99.90;;;;;;5033706;28;20048;-83
2021/12/31 07:07:20;;;;;;;2.80;1.05;;;12.50;99.90;;;;;;5017042;28;20459;-85
2021/12/31 07:09:46;;;;;;;1.00;0.50;;;12.40;99.90;;;;;;5017111;28;20045;-84
2021/12/31 07:12:11;;;;;;;7.85;0.70;;;12.50;99.90;;;;;;5033764;28;20511;-86
2021/12/31 07:14:37;;;;;;;4.30;0.82;;;12.40;99.90;;;;;;5033721;28;20052;-86
2021/12/31 07:17:03;;;;;;;7.88;0.93;;;12.40;99.90;;;;;;5016911;28;20041;-84
2021/12/31 07:19:29;;;;;;;2.25;0.68;;;12.40;99.90;;;;;;5017329;28;20404;-87
2021/12/31 07:21:54;;;;;;;2.38;1.05;;;12.50;99.90;;;;;;5033179;28;20041;-88
2021/12/31 07:24:20;;;;;;;4.50;0.98;;;12.40;99.90;;;;;;5016820;28;20400;-87
2021/12/31 07:26:46;;;;;;;2.38;0.80;;;12.30;99.90;;;;;;5017167;28;20043;-83
2021/12/31 07:29:12;;;;;;;3.30;1.35;;;12.20;99.90;;;;;;5016726;28;20081;-83
2021/12/31 07:31:37;;;;;;;4.10;0.95;;;12.20;99.90;;;;;;5016651;28;20052;-86
2021/12/31 07:34:03;;;;;;;3.78;1.15;;;12.10;99.90;;;;;;5000237;28;20045;-87
2021/12/31 07:36:29;;;;;;;1.98;0.85;;;12.10;99.90;;;;;;5016424;28;20435;-85
2021/12/31 07:39:00;;;;;;;3.92;1.00;;;12.00;99.90;;;;;;5016558;28;20091;-83
2021/12/31 07:41:27;;;;;;;4.30;1.25;;;12.10;99.90;;;;;;5016656;28;20518;-83
2021/12/31 07:43:52;;;;;;;6.93;1.02;;;12.10;99.90;;;;;;5032833;28;20045;-83
2021/12/31 07:46:18;;;;;;;8.23;1.58;;;12.10;99.90;;;;;;5016919;28;20040;-83
2021/12/31 07:48:44;;;;;;;5.50;1.25;;;12.10;99.90;;;;;;5016018;28;20041;-87
2021/12/31 07:51:10;;;;;;;3.72;1.30;;;12.00;99.90;;;;;;5032939;28;20047;-83
2021/12/31 07:53:36;;;;;;;2.60;1.65;;;12.10;99.90;;;;;;5032474;28;20500;-84
2021/12/31 07:56:02;;;;;;;5.35;0.98;;;12.10;99.90;;;;;;5016161;28;20137;-86
2021/12/31 07:58:27;;;;;;;2.88;0.75;;;12.10;99.90;;;;;;5015817;28;20045;-87
2021/12/31 08:00:53;;;;;;;2.08;0.65;;;12.20;99.90;;;;;;5016154;28;20057;-83
2021/12/31 08:03:19;;;;;;;3.80;1.35;;;12.00;99.90;;;;;;5032613;28;20488;-86
2021/12/31 08:05:45;;;;;;;3.28;1.23;;;12.20;99.90;;;;;;5015613;28;20052;-85
2021/12/31 08:08:10;;;;;;;2.45;0.85;;;12.00;99.90;;;;;;5016249;28;20046;-85
2021/12/31 08:10:38;;;;;;;3.50;1.20;;;12.00;99.90;;;;;;5015856;28;20053;-83
2021/12/31 08:13:04;;;;;;;3.42;1.02;;;12.00;99.90;;;;;;5016019;28;20392;-84
2021/12/31 08:15:30;;;;;;;2.83;1.20;;;12.10;99.90;;;;;;5015751;28;20120;-86
2021/12/31 08:17:56;;;;;;;3.15;0.90;;;12.10;99.90;;;;;;5032392;28;20094;-84
2021/12/31 08:20:23;;;;;;;7.70;1.33;;;12.10;99.90;;;;;;5015651;28;20052;-83
2021/12/31 08:22:50;;;;;;;5.72;0.95;;;12.10;99.90;;;;;;5015702;28;20037;-85
2021/12/31 08:25:16;;;;;;;3.88;1.17;;;12.10;99.90;;;;;;5031938;28;20041;-87
2021/12/31 08:27:42;;;;;;;6.38;1.35;;;12.20;99.90;;;;;;5015754;28;20515;-84
2021/12/31 08:30:08;;;;;;;2.85;0.63;;;12.20;99.90;;;;;;5031915;28;20045;-87
2021/12/31 08:32:35;;;;;;;5.55;0.80;;;12.20;99.90;;;;;;5032061;28;20045;-88
2021/12/31 08:35:01;;;;;;;3.97;1.02;;;12.20;99.90;;;;;;5015612;28;20053;-86
2021/12/31 08:37:26;;;;;;;4.35;0.80;;;12.20;99.90;;;;;;4999192;28;20389;-83
2021/12/31 08:39:52;;;;;;;1.45;0.40;;;12.20;99.90;;;;;;5031996;28;20041;-84
2021/12/31 08:42:18;;;;;;;6.13;0.90;;;12.30;99.90;;;;;;5031869;28;20106;-86
2021/12/31 08:44:44;;;;;;;3.97;1.35;;;12.20;99.90;;;;;;5015157;28;20103;-88
2021/12/31 08:47:09;;;;;;;3.78;1.25;;;12.20;99.90;;;;;;5015558;28;20042;-83
2021/12/31 08:49:35;;;;;;;4.05;1.17;;;12.20;99.90;;;;;;5015377;28;20115;-86
2021/12/31 08:52:01;;;;;;;2.83;1.08;;;12.20;99.90;;;;;;5015451;28;20124;-86
2021/12/31 08:54:30;;;;;;;3.55;1.13;;;12.20;99.90;;;;;;5015324;28;20096;-87
2021/12/31 08:56:56;;;;;;;3.20;1.02;;;12.20;99.90;;;;;;5031648;28;20081;-87
2021/12/31 08:59:21;;;;;;;2.63;0.95;;;12.20;99.90;;;;;;5015190;28;20579;-87
2021/12/31 09:01:47;;;;;;;1.95;0.70;;;12.20;99.90;;;;;;5031638;28;20075;-85
2021/12/31 09:04:13;;;;;;;6.63;1.20;;;12.20;99.90;;;;;;5014944;28;20104;-86
2021/12/31 09:06:39;;;;;;;3.45;1.05;;;12.10;99.90;;;;;;5015039;28;20072;-84
2021/12/31 09:09:06;;;;;;;4.15;1.02;;;12.00;99.90;;;;;;5015116;28;20042;-84
2021/12/31 09:11:31;;;;;;;5.50;1.58;;;11.90;99.90;;;;;;5015169;28;20045;-84
2021/12/31 09:13:58;;;;;;;3.70;1.17;;;11.80;99.90;;;;;;5031523;28;20052;-84
2021/12/31 09:16:24;;;;;;;3.92;1.17;;;11.90;99.90;;;;;;5014992;28;20049;-87
2021/12/31 09:18:50;;;;;;;3.83;0.70;;;11.90;99.90;;;;;;5018806;28;20049;-83
2021/12/31 09:21:20;;;;;;;3.35;1.30;;;12.00;99.90;;;;;;5035475;28;20128;-87
2021/12/31 09:23:47;;;;;;;7.55;1.42;;;12.00;99.90;;;;;;5019378;28;20128;-86
2021/12/31 09:26:13;;;;;;;4.30;1.38;;;12.00;99.90;;;;;;5019245;28;20042;-84
2021/12/31 09:28:39;;;;;;;2.40;1.00;;;11.90;99.90;;;;;;5035772;28;20487;-87
2021/12/31 09:31:07;;;;;;;4.53;0.82;;;11.90;99.90;;;;;;5018910;28;20042;-86
2021/12/31 09:33:33;;;;;;;2.92;1.10;;;11.90;99.90;;;;;;5019496;28;20404;-85
2021/12/31 09:35:58;;;;;;;5.90;1.73;;;11.80;99.90;;;;;;5018825;28;20054;-86
2021/12/31 09:38:24;;;;;;;5.45;1.73;;;11.90;99.90;;;;;;5019022;28;20064;-87
2021/12/31 09:40:50;;;;;;;2.78;1.08;;;11.80;99.90;;;;;;5035262;28;20057;-87
2021/12/31 09:43:15;;;;;;;3.47;1.38;;;11.80;99.90;;;;;;5018602;28;20041;-85
2021/12/31 09:45:44;;;;;;;2.83;0.73;;;11.80;99.90;;;;;;5018494;28;20052;-84
2021/12/31 09:48:21;;;;;;;5.68;2.17;;;11.90;99.90;;;;;;5051576;28;20049;-84
2021/12/31 09:50:49;;;;;;;5.13;1.08;;;11.90;99.90;;;;;;5018549;28;20052;-84
2021/12/31 09:53:17;;;;;;;3.13;1.75;;;11.80;99.90;;;;;;5034962;28;20046;-88
2021/12/31 09:55:45;;;;;;;4.95;1.48;;;11.70;99.90;;;;;;5035139;28;20450;-87
2021/12/31 09:58:13;;;;;;;3.35;1.35;;;11.40;99.90;;;;;;5018579;28;20439;-83
2021/12/31 10:00:44;;;;;;;3.03;1.27;;;11.30;99.90;;;;;;5034561;28;20504;-84
2021/12/31 10:03:26;;;;;;;2.85;1.30;;;11.20;99.90;;;;;;5018369;28;20049;-87
2021/12/31 10:06:00;;;;;;;6.45;2.08;;;11.20;99.90;;;;;;5018437;28;20046;-83
2021/12/31 10:08:27;;;;;;;2.15;1.13;;;11.20;99.90;;;;;;5034622;28;20215;-87
2021/12/31 10:11:06;;;;;;;7.53;1.65;;;11.10;99.90;;;;;;5018303;28;20052;-82
2021/12/31 10:13:34;;;;;;;11.20;2.55;;;11.00;99.90;;;;;;5034555;28;20107;-81
2021/12/31 10:16:01;;;;;;;4.43;1.52;;;11.00;99.90;;;;;;5034520;28;20056;-81
2021/12/31 10:18:35;;;;;;;2.90;1.70;;;11.00;99.90;;;;;;5018109;28;20490;-81
2021/12/31 10:21:03;;;;;;;5.85;1.40;;;11.10;99.90;;;;;;5017925;28;20052;-84
2021/12/31 10:23:29;;;;;;;6.13;1.85;;;11.00;99.90;;;;;;5018057;28;20050;-85
2021/12/31 10:26:13;;;;;;;7.47;1.52;;;11.00;99.90;;;;;;5018082;28;20393;-80
2021/12/31 10:28:56;;;;;;;8.52;1.98;;;11.00;99.90;;;;;;5033944;28;20077;-80
2021/12/31 10:31:22;;;;;;;6.32;2.35;;;10.90;99.90;;;;;;5018041;28;20045;-84
2021/12/31 10:33:49;;;;;;;4.38;1.85;;;10.90;99.90;;;;;;5017666;28;20056;-84
2021/12/31 10:36:37;;;;;;;3.10;1.48;;;11.00;99.90;;;;;;5017744;28;20049;-84
2021/12/31 10:39:39;;;;;;;4.55;1.55;;;11.00;99.90;;;;;;5034125;28;20132;-80
2021/12/31 10:42:10;;;;;;;3.30;2.03;;;11.00;99.90;;;;;;4980940;28;20046;-85
2021/12/31 10:45:09;;;;;;;5.55;2.00;;;11.00;99.90;;;;;;5011055;28;20111;-84
2021/12/31 10:47:38;;;;;;;4.10;1.67;;;11.00;99.90;;;;;;4995815;28;20064;-80
2021/12/31 10:50:05;;;;;;;5.47;1.67;;;11.00;99.90;;;;;;5034167;28;20049;-80
2021/12/31 10:52:36;;;;;;;10.23;2.10;;;11.10;99.90;;;;;;5017307;28;20042;-84
2021/12/31 10:57:58;;;;;;;3.05;1.45;;;11.10;99.90;;;;;;5033913;28;20408;-85
2021/12/31 11:00:27;;;;;;;8.30;1.92;;;11.10;99.90;;;;;;5016996;28;20144;-85
2021/12/31 11:02:53;;;;;;;2.92;1.70;;;11.20;99.90;;;;;;5017223;28;20444;-84
2021/12/31 11:05:21;;;;;;;8.20;2.00;;;11.10;99.90;;;;;;5033488;28;20090;-80
2021/12/31 11:07:47;;;;;;;8.23;2.78;;;11.10;99.90;;;;;;5016874;28;20060;-80
2021/12/31 11:10:15;;;;;;;15.82;2.47;;;11.10;99.90;;;;;;5033283;28;20052;-80
2021/12/31 11:12:46;;;;;;;3.28;1.25;;;11.00;99.90;;;;;;5016817;28;20060;-80
2021/12/31 11:15:12;;;;;;;5.03;2.22;;;11.10;99.90;;;;;;5033451;28;20044;-86
2021/12/31 11:17:38;;;;;;;5.20;1.80;;;11.00;99.90;;;;;;5033313;28;20049;-81
2021/12/31 11:20:06;;;;;;;10.00;2.28;;;11.00;99.90;;;;;;5033316;28;20139;-84
2021/12/31 11:22:32;;;;;;;4.40;1.80;;;10.90;99.90;;;;;;5017000;28;20052;-85
2021/12/31 11:25:19;;;;;;;8.52;2.05;;;10.90;99.90;;;;;;5033376;28;20134;-82
2021/12/31 11:27:47;;;;;;;4.72;1.58;;;10.90;99.90;;;;;;5033114;28;20266;-86
2021/12/31 11:30:33;;;;;;;3.58;1.48;;;10.80;99.90;;;;;;5016665;28;20095;-80
2021/12/31 11:33:10;;;;;;;7.55;2.72;;;10.80;99.90;;;;;;5033041;28;20046;-81
2021/12/31 11:35:44;;;;;;;7.22;2.40;;;10.70;99.90;;;;;;5033224;28;20403;-86
2021/12/31 11:38:21;;;;;;;5.18;1.58;;;10.70;99.90;;;;;;5016537;28;20128;-86
2021/12/31 11:40:51;;;;;;;12.02;3.20;;;10.70;99.90;;;;;;5032155;28;20044;-87
2021/12/31 11:43:24;;;;;;;5.03;3.50;;;10.80;99.90;;;;;;5032842;28;20049;-86
2021/12/31 11:46:09;;;;;;;9.23;5.60;;;10.70;99.90;;;;;;5033073;28;20080;-86
2021/12/31 11:51:36;;;;;;;7.45;3.05;;;10.70;99.90;;;;;;5033088;28;20142;-86
2021/12/31 11:54:06;;;;;;;7.88;2.97;;;10.60;99.90;;;;;;5016029;28;20076;-86
2021/12/31 11:56:45;;;;;;;4.63;1.67;;;10.60;99.90;;;;;;5032463;28;20049;-81
2021/12/31 11:59:13;;;;;;;7.63;2.85;;;10.70;99.90;;;;;;5015990;28;20484;-86
2021/12/31 12:01:47;;;;;;;2.72;1.58;;;10.70;99.90;;;;;;5032459;28;20132;-81
2021/12/31 12:04:28;;;;;;;6.82;2.42;;;10.70;99.90;;;;;;5017186;28;20412;-86
2021/12/31 12:07:00;;;;;;;7.50;2.30;;;10.70;99.90;;;;;;5016110;28;20140;-80
2021/12/31 12:09:41;;;;;;;6.95;1.23;;;10.80;99.90;;;;;;5032229;28;20044;-80
2021/12/31 12:12:13;;;;;;;4.78;2.17;;;10.80;99.90;;;;;;5032279;28;20045;-86
2021/12/31 12:14:47;;;;;;;2.33;1.83;;;10.80;99.90;;;;;;5032454;28;20046;-86
2021/12/31 12:17:31;;;;;;;3.50;1.52;;;10.80;99.90;;;;;;5032822;28;20326;-87
2021/12/31 12:20:03;;;;;;;4.82;1.75;;;10.80;99.90;;;;;;5032455;28;20053;-86
2021/12/31 12:22:37;;;;;;;3.05;1.38;;;10.80;99.90;;;;;;5015675;28;20046;-83
2021/12/31 12:25:22;;;;;;;7.43;3.47;;;10.80;99.90;;;;;;5015959;28;20045;-86
2021/12/31 12:27:49;;;;;;;5.70;2.38;;;10.80;99.90;;;;;;5032014;28;20049;-86
2021/12/31 12:30:16;;;;;;;7.80;1.73;;;10.80;99.90;;;;;;5032185;28;20076;-80
2021/12/31 12:35:26;;;;;;;2.60;1.65;;;10.70;99.90;;;;;;5031811;28;20064;-80
2021/12/31 12:38:06;;;;;;;7.63;1.80;;;10.70;99.90;;;;;;5031838;28;20060;-80
2021/12/31 12:40:40;;;;;;;6.22;2.13;;;10.70;99.90;;;;;;5015402;28;20041;-86
2021/12/31 12:43:06;;;;;;;;;;;10.70;99.90;;;;;;5015896;28;20041;-81
2021/12/31 12:45:33;;;;;;;8.10;3.33;;;10.70;99.90;;;;;;5031768;28;19970;-85
2021/12/31 12:47:59;;;;;;;3.10;1.88;;;10.80;99.90;;;;;;5015679;28;20400;-80
2021/12/31 12:50:25;;;;;;;3.55;2.03;;;10.70;99.90;;;;;;5031731;28;20045;-85
2021/12/31 12:52:56;;;;;;;4.43;1.88;;;10.70;99.90;;;;;;5015014;28;20050;-80
2021/12/31 12:55:22;;;;;;;4.65;1.55;;;10.70;99.90;;;;;;5031516;28;20054;-80
2021/12/31 12:57:53;;;;;;;2.88;1.77;;;10.70;99.90;;;;;;5015292;28;20408;-86